Главная страница
METAR-TAF:

METAR-TAF

Аэропорты :

Уагадугу, Буркина-Фасо

широта: 12-21N, долгота: 001-31W, высота над уровнем моря: 316 м

Текущие метеонаблюдения

Эта сводка был подготовлена 1 час и 0 минут назад, в 22:00 UTC
Ветер 4 Узел от северо-восточный
Температура 24°C
Влажность 31%
Давление 1016 hPa
Видимость: 8000 м

METAR: DFFD 182200Z 04004KT 8000 NSC 24/06 Q1016 NOSIG

Время: 23:00 (23:00 UTC)

Прогноз

Эта сводка был подготовлена 6 часа и 0 минут назад, в 17:00 UTC
Прогноз действительный с 18-го 18 UTC до 19-го 24 UTC
Ветер 8 Узел от восточный
Видимость: 8000 м
временами
С 18-го 18 UTC до 18-го 22 UTC
Видимость: 4000 м
пыль, взвешенная над обширной территорией
изменения
С 19-го 04 UTC до 19-го 06 UTC
Видимость: 2000 м
пыль, взвешенная над обширной территорией
изменения
С 19-го 12 UTC до 19-го 14 UTC
Видимость: 4000 м
пыль, взвешенная над обширной территорией

TAF: DFFD 181700Z 1818/1924 08008KT 8000 NSC TEMPO 1818/1822 4000 DU BECMG 1904/1906 2000 DU BECMG 1912/1914 4000 DU

Метеонаблюдения и прогнозы для более 4000 аэропортов (сводки METAR и TAF).

Имеющиеся станции представлены на карте желтыми и красными точками.

Чтобы увидеть название станции, наведите на нее мышь.

Затем щелкните, чтобы увидеть метеонаблюдения и метеопрогнозы.

Управление картой: чтобы увеличить масштаб, щелкните зеленые кнопки с черным крестиком; чтобы уменьшить масштаб, щелкните зеленую кнопку с тире; для просмотра соседних карт щелкайте зеленые стрелки.


METAR-TAF: